createdAt,value
2018-12-26T00:02:06.236Z,14.90
2018-12-26T00:04:37.120Z,15.27
2018-12-26T00:07:08.017Z,15.03
2018-12-26T00:09:38.832Z,16.37
2018-12-26T00:12:09.711Z,14.53
2018-12-26T00:14:52.696Z,15.60
2018-12-26T00:17:23.410Z,14.83
2018-12-26T00:20:06.277Z,15.90
2018-12-26T00:22:37.066Z,16.17
2018-12-26T00:25:07.956Z,15.60
2018-12-26T00:27:38.654Z,15.47
2018-12-26T00:30:09.585Z,15.73
2018-12-26T00:32:40.570Z,15.33
2018-12-26T00:35:22.862Z,15.77
2018-12-26T00:37:53.744Z,15.40
2018-12-26T00:40:24.616Z,15.27
2018-12-26T00:43:07.023Z,15.83
2018-12-26T00:45:37.874Z,15.23
2018-12-26T00:48:08.783Z,16.73
2018-12-26T00:50:39.729Z,16.17
2018-12-26T00:53:10.658Z,16.47
2018-12-26T00:55:41.580Z,15.57
2018-12-26T00:58:12.432Z,16.30
2018-12-26T01:00:43.542Z,15.20
2018-12-26T01:03:26.438Z,16.20
2018-12-26T01:05:57.432Z,16.83
2018-12-26T01:08:28.253Z,16.23
2018-12-26T01:11:09.298Z,16.27
2018-12-26T01:13:51.646Z,16.27
2018-12-26T01:16:22.473Z,16.70
2018-12-26T01:18:53.329Z,16.37
2018-12-26T01:21:24.225Z,16.70
2018-12-26T01:23:55.113Z,17.10
2018-12-26T01:26:26.077Z,16.43
2018-12-26T01:28:56.942Z,16.60
2018-12-26T01:31:27.877Z,16.97
2018-12-26T01:34:08.903Z,16.63
2018-12-26T01:36:52.100Z,16.77
2018-12-26T01:39:22.953Z,16.37
2018-12-26T01:42:05.741Z,16.70
2018-12-26T01:44:36.457Z,16.67
2018-12-26T01:47:07.354Z,17.60
2018-12-26T01:49:50.413Z,16.77
2018-12-26T01:52:21.323Z,16.43
2018-12-26T01:54:52.145Z,16.30
2018-12-26T01:57:23.287Z,16.50
2018-12-26T01:59:54.172Z,16.40
2018-12-26T02:02:25.064Z,16.90
2018-12-26T02:05:06.416Z,16.47
2018-12-26T02:07:49.105Z,16.93
2018-12-26T02:10:19.883Z,16.73
2018-12-26T02:12:50.696Z,16.00
2018-12-26T02:15:33.774Z,16.40
2018-12-26T02:18:04.658Z,17.00
2018-12-26T02:20:47.624Z,17.20
2018-12-26T02:23:18.485Z,17.63
2018-12-26T02:25:49.343Z,16.93
2018-12-26T02:28:20.228Z,16.47
2018-12-26T02:30:51.251Z,16.13
2018-12-26T02:33:33.647Z,17.73
2018-12-26T02:36:04.526Z,16.80
2018-12-26T02:38:35.349Z,16.73
2018-12-26T02:41:18.173Z,16.63
2018-12-26T02:43:49.620Z,17.37
2018-12-26T02:46:32.261Z,17.73
2018-12-26T02:49:03.102Z,18.23
2018-12-26T02:51:46.021Z,17.30
2018-12-26T02:54:29.726Z,16.47
2018-12-26T02:57:00.686Z,16.63
2018-12-26T02:59:31.559Z,17.67
2018-12-26T03:02:13.779Z,17.30
2018-12-26T03:04:44.938Z,17.53
2018-12-26T03:07:15.801Z,17.00
2018-12-26T03:09:58.527Z,17.57
2018-12-26T03:12:29.435Z,17.00
2018-12-26T03:15:12.165Z,17.10
2018-12-26T03:17:55.241Z,17.10
2018-12-26T03:20:26.303Z,16.03
2018-12-26T03:23:17.749Z,17.07
2018-12-26T03:25:48.627Z,17.40
2018-12-26T03:28:19.714Z,16.90
2018-12-26T03:30:50.697Z,17.07
2018-12-26T03:33:21.505Z,16.33
2018-12-26T03:35:52.405Z,17.33
2018-12-26T03:38:23.433Z,16.77
2018-12-26T03:40:55.240Z,17.67
2018-12-26T03:43:38.475Z,17.23
2018-12-26T03:46:21.576Z,17.37
2018-12-26T03:48:52.846Z,17.07
2018-12-26T03:51:27.031Z,17.13
2018-12-26T03:53:58.082Z,17.53
2018-12-26T03:56:28.949Z,17.07
2018-12-26T03:59:00.017Z,16.93
2018-12-26T04:01:30.954Z,17.90
2018-12-26T04:04:02.109Z,18.47
2018-12-26T04:06:32.973Z,17.83
2018-12-26T04:09:04.949Z,17.80
2018-12-26T04:11:35.989Z,16.87
2018-12-26T04:14:06.852Z,18.03
2018-12-26T04:16:37.873Z,18.57
2018-12-26T04:19:11.168Z,17.53
2018-12-26T04:21:42.213Z,17.37
2018-12-26T04:24:15.812Z,17.47
2018-12-26T04:26:48.827Z,17.90
2018-12-26T04:29:19.625Z,18.00
2018-12-26T04:31:53.420Z,19.17
2018-12-26T04:34:24.110Z,18.63
2018-12-26T04:36:54.996Z,17.97
2018-12-26T04:39:25.959Z,17.83
2018-12-26T04:41:56.725Z,18.73
2018-12-26T04:44:27.550Z,18.43
2018-12-26T04:46:58.270Z,17.90
2018-12-26T04:49:29.087Z,17.77
2018-12-26T04:52:00.066Z,17.63
2018-12-26T04:54:30.851Z,18.37
2018-12-26T04:57:01.580Z,17.60
2018-12-26T04:59:32.507Z,18.10
2018-12-26T05:02:03.981Z,17.87
2018-12-26T05:04:34.917Z,18.07
2018-12-26T05:07:05.642Z,18.60
2018-12-26T05:09:36.492Z,17.97
2018-12-26T05:12:07.375Z,18.37
2018-12-26T05:14:38.327Z,18.97
2018-12-26T05:17:09.200Z,18.10
2018-12-26T05:19:39.985Z,18.40
2018-12-26T05:22:10.865Z,19.23
2018-12-26T05:24:41.734Z,18.30
2018-12-26T05:27:12.614Z,18.47
2018-12-26T05:29:43.417Z,18.77
2018-12-26T05:32:14.229Z,18.80
2018-12-26T05:34:45.118Z,18.23
2018-12-26T05:37:16.014Z,19.10
2018-12-26T05:39:46.881Z,18.70
2018-12-26T05:42:17.764Z,17.83
2018-12-26T05:44:48.536Z,18.33
2018-12-26T05:47:19.280Z,17.77
2018-12-26T05:49:50.096Z,18.77
2018-12-26T05:52:20.964Z,18.40
2018-12-26T05:54:51.751Z,18.07
2018-12-26T05:57:22.488Z,18.00
2018-12-26T05:59:53.309Z,19.37
2018-12-26T06:02:24.053Z,19.27
2018-12-26T06:04:54.851Z,18.63
2018-12-26T06:07:25.646Z,19.33
2018-12-26T06:09:56.345Z,18.10
2018-12-26T06:12:27.256Z,18.23
2018-12-26T06:14:58.042Z,19.03
2018-12-26T06:17:29.473Z,17.60
2018-12-26T06:20:00.183Z,18.83
2018-12-26T06:22:31.433Z,18.60
2018-12-26T06:25:02.315Z,19.50
2018-12-26T06:27:33.126Z,18.73
2018-12-26T06:30:04.364Z,19.13
2018-12-26T06:32:35.157Z,19.43
2018-12-26T06:35:06.048Z,18.03
2018-12-26T06:37:36.946Z,18.33
2018-12-26T06:40:07.780Z,18.60
2018-12-26T06:42:38.512Z,19.30
2018-12-26T06:45:09.412Z,24.27
2018-12-26T06:47:40.228Z,24.97
2018-12-26T06:50:11.001Z,23.30
2018-12-26T06:52:41.821Z,20.43
2018-12-26T06:55:12.691Z,21.23
2018-12-26T06:57:43.452Z,19.80
2018-12-26T07:00:14.506Z,19.17
2018-12-26T07:02:45.394Z,18.83
2018-12-26T07:05:16.453Z,18.57
2018-12-26T07:07:47.613Z,18.40
2018-12-26T07:10:18.489Z,19.50
2018-12-26T07:12:49.374Z,18.13
2018-12-26T07:15:20.264Z,19.00
2018-12-26T07:17:51.226Z,19.57
2018-12-26T07:20:22.072Z,18.47
2018-12-26T07:22:52.884Z,18.43
2018-12-26T07:25:23.736Z,18.67
2018-12-26T07:27:54.738Z,18.93
2018-12-26T07:30:25.620Z,18.77
2018-12-26T07:32:56.424Z,18.97
2018-12-26T07:35:27.296Z,18.57
2018-12-26T07:37:58.191Z,18.30
2018-12-26T07:40:29.174Z,18.47
2018-12-26T07:42:59.984Z,18.17
2018-12-26T07:45:30.735Z,18.70
2018-12-26T07:48:01.506Z,19.53
2018-12-26T07:50:32.293Z,19.97
2018-12-26T07:53:03.133Z,18.60
2018-12-26T07:55:33.980Z,19.77
2018-12-26T07:58:04.821Z,19.07
2018-12-26T08:00:35.723Z,18.70
2018-12-26T08:03:06.609Z,17.90
2018-12-26T08:05:37.411Z,19.27
2018-12-26T08:08:08.644Z,18.03
2018-12-26T08:10:39.496Z,19.00
2018-12-26T08:13:10.388Z,18.37
2018-12-26T08:15:41.209Z,17.20
2018-12-26T08:18:12.112Z,18.23
2018-12-26T08:20:42.930Z,18.87
2018-12-26T08:23:13.749Z,19.07
2018-12-26T08:25:44.490Z,19.57
2018-12-26T08:28:15.362Z,19.20
2018-12-26T08:30:46.069Z,19.30
2018-12-26T08:33:17.833Z,19.50
2018-12-26T08:35:48.548Z,19.10
2018-12-26T08:38:19.349Z,20.60
2018-12-26T08:40:50.216Z,20.07
2018-12-26T08:43:21.012Z,19.80
2018-12-26T08:45:51.803Z,20.23
2018-12-26T08:48:22.593Z,20.13
2018-12-26T08:50:53.501Z,20.13
2018-12-26T08:53:24.480Z,20.17
2018-12-26T08:55:55.341Z,22.17
2018-12-26T08:58:26.220Z,19.93
2018-12-26T09:00:57.082Z,21.30
2018-12-26T09:03:27.948Z,20.23
2018-12-26T09:05:58.805Z,20.67
2018-12-26T09:08:29.622Z,22.30
2018-12-26T09:11:00.425Z,22.23
2018-12-26T09:13:31.229Z,21.87
2018-12-26T09:16:02.040Z,20.53
2018-12-26T09:18:32.951Z,20.70
2018-12-26T09:21:03.828Z,20.67
2018-12-26T09:23:34.714Z,19.83
2018-12-26T09:26:06.883Z,19.57
2018-12-26T09:28:43.766Z,20.63
2018-12-26T09:31:10.286Z,21.47
2018-12-26T09:33:41.090Z,20.20
2018-12-26T09:36:11.870Z,21.13
2018-12-26T09:38:42.695Z,21.33
2018-12-26T09:41:13.658Z,22.13
2018-12-26T09:43:44.503Z,22.07
2018-12-26T09:46:15.285Z,21.03
2018-12-26T09:48:46.193Z,21.60
2018-12-26T09:51:16.915Z,20.17
2018-12-26T09:53:47.685Z,20.47
2018-12-26T09:56:18.476Z,20.00
2018-12-26T09:58:52.551Z,20.53
2018-12-26T10:01:22.535Z,20.43
2018-12-26T10:03:53.408Z,20.67
2018-12-26T10:06:24.261Z,20.33
2018-12-26T10:08:58.613Z,20.63
2018-12-26T10:11:29.474Z,20.20
2018-12-26T10:14:10.720Z,21.20
2018-12-26T10:16:41.469Z,20.27
2018-12-26T10:19:12.303Z,21.20
2018-12-26T10:21:43.225Z,19.90
2018-12-26T10:24:14.165Z,20.27
2018-12-26T10:26:45.035Z,20.80
2018-12-26T10:29:15.874Z,19.53
2018-12-26T10:31:46.726Z,19.77
2018-12-26T10:34:17.505Z,20.00
2018-12-26T10:36:48.203Z,19.43
2018-12-26T10:39:19.088Z,19.30
2018-12-26T10:41:50.031Z,19.90
2018-12-26T10:44:20.956Z,19.33
2018-12-26T10:46:51.840Z,19.67
2018-12-26T10:49:22.692Z,19.97
2018-12-26T10:51:53.560Z,19.97
2018-12-26T10:54:24.621Z,19.23
2018-12-26T10:56:55.417Z,20.93
2018-12-26T10:59:26.296Z,21.13
2018-12-26T11:01:57.206Z,20.00
2018-12-26T11:04:28.271Z,18.57
2018-12-26T11:06:59.126Z,18.80
2018-12-26T11:09:30.157Z,17.30
2018-12-26T11:12:01.006Z,16.37
2018-12-26T11:14:31.922Z,17.77
2018-12-26T11:17:02.788Z,17.77
2018-12-26T11:19:33.761Z,17.37
2018-12-26T11:22:04.634Z,17.80
2018-12-26T11:24:35.523Z,18.10
2018-12-26T11:27:06.380Z,17.90
2018-12-26T11:29:37.300Z,16.53
2018-12-26T11:32:08.161Z,17.03
2018-12-26T11:34:38.959Z,17.83
2018-12-26T11:37:09.822Z,16.70
2018-12-26T11:39:40.854Z,16.60
2018-12-26T11:42:11.701Z,17.73
2018-12-26T11:44:42.553Z,17.73
2018-12-26T11:47:13.350Z,17.93
2018-12-26T11:49:44.162Z,18.70
2018-12-26T11:52:14.965Z,19.07
2018-12-26T11:54:45.785Z,18.77
2018-12-26T11:57:16.576Z,17.53
2018-12-26T11:59:47.385Z,17.07
2018-12-26T12:02:20.649Z,18.27
2018-12-26T12:04:53.528Z,16.60
2018-12-26T12:07:24.392Z,16.67
2018-12-26T12:09:55.321Z,16.53
2018-12-26T12:12:26.224Z,15.57
2018-12-26T12:14:57.113Z,16.10
2018-12-26T12:17:28.035Z,16.30
2018-12-26T12:19:58.924Z,15.60
2018-12-26T12:22:29.834Z,15.83
2018-12-26T12:25:00.724Z,15.50
2018-12-26T12:27:31.606Z,15.57
2018-12-26T12:30:02.722Z,15.57
2018-12-26T12:32:33.497Z,15.93
2018-12-26T12:35:04.406Z,15.70
2018-12-26T12:37:36.240Z,15.63
2018-12-26T12:40:08.869Z,15.87
2018-12-26T12:42:39.772Z,15.80
2018-12-26T12:45:10.928Z,15.67
2018-12-26T12:47:41.777Z,16.10
2018-12-26T12:50:12.663Z,15.50
2018-12-26T12:52:43.512Z,16.23
2018-12-26T12:55:14.404Z,15.37
2018-12-26T12:57:45.261Z,16.20
2018-12-26T13:00:16.204Z,16.07
2018-12-26T13:02:47.109Z,16.93
2018-12-26T13:05:18.047Z,16.10
2018-12-26T13:07:48.850Z,15.53
2018-12-26T13:10:19.645Z,14.73
2018-12-26T13:12:51.476Z,15.27
2018-12-26T13:15:22.381Z,13.70
2018-12-26T13:17:53.233Z,14.50
2018-12-26T13:20:24.146Z,14.13
2018-12-26T13:22:54.933Z,14.73
2018-12-26T13:25:25.969Z,16.60
2018-12-26T13:27:56.777Z,15.40
2018-12-26T13:30:27.609Z,15.27
2018-12-26T13:32:58.482Z,13.73
2018-12-26T13:35:29.298Z,13.00
2018-12-26T13:38:00.159Z,13.27
2018-12-26T13:40:31.067Z,14.17
2018-12-26T13:43:01.917Z,12.70
2018-12-26T13:45:32.744Z,13.33
2018-12-26T13:48:03.524Z,13.20
2018-12-26T13:50:34.334Z,12.63
2018-12-26T13:53:05.196Z,13.50
2018-12-26T13:55:36.132Z,13.17
2018-12-26T13:58:06.929Z,13.17
2018-12-26T14:00:37.789Z,13.80
2018-12-26T14:03:08.653Z,13.17
2018-12-26T14:05:39.590Z,13.90
2018-12-26T14:08:10.373Z,13.43
2018-12-26T14:10:41.166Z,13.83
2018-12-26T14:13:11.866Z,14.80
2018-12-26T14:15:42.769Z,15.40
2018-12-26T14:18:13.534Z,14.07
2018-12-26T14:20:44.417Z,14.63
2018-12-26T14:23:15.199Z,14.37
2018-12-26T14:25:46.004Z,14.83
2018-12-26T14:28:16.935Z,14.70
2018-12-26T14:30:47.797Z,14.37
2018-12-26T14:33:18.500Z,14.80
2018-12-26T14:35:58.332Z,15.60
2018-12-26T14:38:29.223Z,16.13
2018-12-26T14:41:00.305Z,15.60
2018-12-26T14:43:31.083Z,15.23
2018-12-26T14:46:01.877Z,15.43
2018-12-26T14:48:32.785Z,15.57
2018-12-26T14:51:03.585Z,15.63
2018-12-26T14:53:34.445Z,16.03
2018-12-26T14:56:05.293Z,16.27
2018-12-26T14:58:36.208Z,15.93
2018-12-26T15:01:07.094Z,16.00
2018-12-26T15:03:37.956Z,16.43
2018-12-26T15:06:08.872Z,15.20
2018-12-26T15:08:39.723Z,16.03
2018-12-26T15:11:10.648Z,15.37
2018-12-26T15:13:41.457Z,16.10
2018-12-26T15:16:12.227Z,15.53
2018-12-26T15:18:43.087Z,15.07
2018-12-26T15:21:13.892Z,16.40
2018-12-26T15:23:44.610Z,15.47
2018-12-26T15:26:15.517Z,15.73
2018-12-26T15:28:46.590Z,15.47
2018-12-26T15:31:17.490Z,17.07
2018-12-26T15:33:48.706Z,16.70
2018-12-26T15:36:19.769Z,16.33
2018-12-26T15:38:50.548Z,15.07
2018-12-26T15:41:21.381Z,15.60
2018-12-26T15:43:52.288Z,16.93
2018-12-26T15:46:23.104Z,17.63
2018-12-26T15:48:53.902Z,17.53
2018-12-26T15:51:24.760Z,16.93
2018-12-26T15:53:55.626Z,18.57
2018-12-26T15:56:26.688Z,16.50
2018-12-26T15:58:57.645Z,17.10
2018-12-26T16:01:28.540Z,16.73
2018-12-26T16:03:59.395Z,18.07
2018-12-26T16:06:30.257Z,17.90
2018-12-26T16:09:01.233Z,17.33
2018-12-26T16:11:32.077Z,16.83
2018-12-26T16:14:02.945Z,17.00
2018-12-26T16:16:33.967Z,17.33
2018-12-26T16:19:04.816Z,16.93
2018-12-26T16:21:35.555Z,16.77
2018-12-26T16:24:06.320Z,16.60
2018-12-26T16:26:37.984Z,16.40
2018-12-26T16:29:08.872Z,17.87
2018-12-26T16:31:39.716Z,17.37
2018-12-26T16:34:10.405Z,17.50
2018-12-26T16:36:41.407Z,18.20
2018-12-26T16:39:12.255Z,17.50
2018-12-26T16:41:43.060Z,18.17
2018-12-26T16:44:13.765Z,18.57
2018-12-26T16:46:44.600Z,18.23
2018-12-26T16:49:15.465Z,17.03
2018-12-26T16:51:46.361Z,17.87
2018-12-26T16:54:17.146Z,18.10
2018-12-26T16:56:47.946Z,17.87
2018-12-26T16:59:18.711Z,16.43
2018-12-26T17:01:49.525Z,17.10
2018-12-26T17:04:20.436Z,18.50
2018-12-26T17:06:51.348Z,18.13
2018-12-26T17:09:22.195Z,17.97
2018-12-26T17:11:53.032Z,18.63
2018-12-26T17:14:23.816Z,17.80
2018-12-26T17:16:54.680Z,17.77
2018-12-26T17:19:25.464Z,17.67
2018-12-26T17:21:56.288Z,17.40
2018-12-26T17:24:27.005Z,18.60
2018-12-26T17:26:57.878Z,18.30
2018-12-26T17:29:28.674Z,17.80
2018-12-26T17:31:59.587Z,17.83
2018-12-26T17:34:30.360Z,17.73
2018-12-26T17:37:01.193Z,16.63
2018-12-26T17:39:33.012Z,17.00
2018-12-26T17:42:03.885Z,18.00
2018-12-26T17:44:34.841Z,17.40
2018-12-26T17:47:07.726Z,17.20
2018-12-26T17:49:38.661Z,17.57
2018-12-26T17:52:09.516Z,17.37
2018-12-26T17:55:01.114Z,17.93
2018-12-26T17:57:38.607Z,18.07
2018-12-26T18:00:42.693Z,17.20
2018-12-26T18:03:13.551Z,17.17
2018-12-26T18:05:45.378Z,17.30
2018-12-26T18:08:16.246Z,17.57
2018-12-26T18:10:47.042Z,16.67
2018-12-26T18:13:29.745Z,16.37
2018-12-26T18:16:00.524Z,16.30
2018-12-26T18:18:31.597Z,18.00
2018-12-26T18:21:02.397Z,16.23
2018-12-26T18:23:33.240Z,15.87
2018-12-26T18:26:04.096Z,16.80
2018-12-26T18:28:34.913Z,15.73
2018-12-26T18:31:05.795Z,16.90
2018-12-26T18:33:36.617Z,15.80
2018-12-26T18:36:20.493Z,17.67
2018-12-26T18:39:05.041Z,16.73
2018-12-26T18:41:35.212Z,16.50
2018-12-26T18:44:06.371Z,16.60
2018-12-26T18:46:49.043Z,16.37
2018-12-26T18:49:32.250Z,15.43
2018-12-26T18:52:14.876Z,16.20
2018-12-26T18:54:45.606Z,16.60
2018-12-26T18:57:28.465Z,16.43
2018-12-26T18:59:59.275Z,16.07
2018-12-26T19:02:30.309Z,16.07
2018-12-26T19:05:01.134Z,16.50
2018-12-26T19:07:31.993Z,15.57
2018-12-26T19:10:07.347Z,16.07
2018-12-26T19:12:38.277Z,16.23
2018-12-26T19:17:41.053Z,16.77
2018-12-26T19:20:12.026Z,16.57
2018-12-26T19:22:54.699Z,16.30
2018-12-26T19:25:25.540Z,15.80
2018-12-26T19:27:56.285Z,17.73
2018-12-26T19:30:27.129Z,17.70
2018-12-26T19:32:57.932Z,17.97
2018-12-26T19:35:28.656Z,16.97
2018-12-26T19:37:59.627Z,18.73
2018-12-26T19:40:30.559Z,16.87
2018-12-26T19:43:01.532Z,17.60
2018-12-26T19:45:32.341Z,18.10
2018-12-26T19:48:03.172Z,18.10
2018-12-26T19:50:46.325Z,17.10
2018-12-26T19:53:17.262Z,17.67
2018-12-26T19:55:48.125Z,16.93
2018-12-26T19:58:19.183Z,19.13
2018-12-26T20:00:52.445Z,17.93
2018-12-26T20:03:23.321Z,17.50
2018-12-26T20:05:54.092Z,19.60
2018-12-26T20:08:25.360Z,18.27
2018-12-26T20:10:56.495Z,17.70
2018-12-26T20:13:27.501Z,17.73
2018-12-26T20:15:58.340Z,19.87
2018-12-26T20:18:29.165Z,21.30
2018-12-26T20:21:00.107Z,19.87
2018-12-26T20:23:31.213Z,19.77
2018-12-26T20:26:01.994Z,19.37
2018-12-26T20:28:35.165Z,18.97
2018-12-26T20:31:06.261Z,19.47
2018-12-26T20:33:37.108Z,20.20
2018-12-26T20:36:07.998Z,19.70
2018-12-26T20:38:38.921Z,18.63
2018-12-26T20:41:21.641Z,20.10
2018-12-26T20:43:52.571Z,20.17
2018-12-26T20:46:24.686Z,19.67
2018-12-26T20:49:07.389Z,19.60
2018-12-26T20:51:38.281Z,20.07
2018-12-26T20:54:09.033Z,19.77
2018-12-26T20:56:39.956Z,19.97
2018-12-26T20:59:10.899Z,19.47
2018-12-26T21:01:41.737Z,19.53
2018-12-26T21:04:12.628Z,19.60
2018-12-26T21:06:55.694Z,18.67
2018-12-26T21:09:26.522Z,20.00
2018-12-26T21:11:57.541Z,19.57
2018-12-26T21:14:28.342Z,19.47
2018-12-26T21:16:59.260Z,21.10
2018-12-26T21:19:42.070Z,23.67
2018-12-26T21:22:12.914Z,21.43
2018-12-26T21:24:43.801Z,21.20
2018-12-26T21:27:14.612Z,20.60
2018-12-26T21:29:45.616Z,21.70
2018-12-26T21:32:16.517Z,21.37
2018-12-26T21:34:47.266Z,20.30
2018-12-26T21:37:17.973Z,21.40
2018-12-26T21:39:48.813Z,22.53
2018-12-26T21:42:19.678Z,21.77
2018-12-26T21:44:50.497Z,22.57
2018-12-26T21:47:21.421Z,21.00
2018-12-26T21:49:52.324Z,22.23
2018-12-26T21:52:23.188Z,22.80
2018-12-26T21:54:53.948Z,23.03
2018-12-26T21:57:24.774Z,23.50
2018-12-26T21:59:55.704Z,24.47
2018-12-26T22:02:26.520Z,24.57
2018-12-26T22:04:57.401Z,24.53
2018-12-26T22:07:28.180Z,24.73
2018-12-26T22:09:59.081Z,23.70
2018-12-26T22:12:29.913Z,24.70
2018-12-26T22:15:12.219Z,24.70
2018-12-26T22:17:42.884Z,25.20
2018-12-26T22:20:13.767Z,24.80
2018-12-26T22:22:44.612Z,25.00
2018-12-26T22:25:27.294Z,23.67
2018-12-26T22:27:58.173Z,24.37
2018-12-26T22:30:29.117Z,25.07
2018-12-26T22:32:59.897Z,23.40
2018-12-26T22:35:32.553Z,22.77
2018-12-26T22:38:15.625Z,24.30
2018-12-26T22:40:46.768Z,23.43
2018-12-26T22:43:17.540Z,24.70
2018-12-26T22:45:48.363Z,24.63
2018-12-26T22:48:19.054Z,23.77
2018-12-26T22:50:49.962Z,24.37
2018-12-26T22:53:21.733Z,24.53
2018-12-26T22:55:53.423Z,24.10
2018-12-26T22:58:24.244Z,25.47
2018-12-26T23:00:55.221Z,25.60
2018-12-26T23:03:25.996Z,24.47
2018-12-26T23:05:56.867Z,25.80
2018-12-26T23:08:27.708Z,26.00
2018-12-26T23:11:10.285Z,25.77
2018-12-26T23:13:41.483Z,26.70
2018-12-26T23:16:12.610Z,26.80
2018-12-26T23:18:58.063Z,26.97
2018-12-26T23:21:28.504Z,25.77
2018-12-26T23:23:59.536Z,25.90
2018-12-26T23:26:31.681Z,26.50
2018-12-26T23:29:14.929Z,25.93
2018-12-26T23:31:45.854Z,25.00
2018-12-26T23:34:16.602Z,26.43
2018-12-26T23:36:47.610Z,30.03
2018-12-26T23:39:18.648Z,27.33
2018-12-26T23:41:59.824Z,27.53
2018-12-26T23:44:30.847Z,25.33
2018-12-26T23:47:02.055Z,27.30
2018-12-26T23:49:33.449Z,26.80
2018-12-26T23:52:04.849Z,25.37
2018-12-26T23:54:38.447Z,25.63
2018-12-26T23:57:22.078Z,25.67
2018-12-26T23:59:54.012Z,26.53
